createdAt,value
2022-09-06T00:01:58.644Z,101798.34
2022-09-06T00:06:00.415Z,101795.00
2022-09-06T00:10:01.056Z,101796.66
2022-09-06T00:14:00.618Z,101797.84
2022-09-06T00:18:02.783Z,101793.47
2022-09-06T00:22:04.196Z,101785.66
2022-09-06T00:26:05.729Z,101792.09
2022-09-06T00:30:06.520Z,101793.50
2022-09-06T00:34:06.148Z,101784.59
2022-09-06T00:38:07.802Z,101779.84
2022-09-06T00:42:10.234Z,101783.66
2022-09-06T00:46:12.531Z,101788.09
2022-09-06T00:50:17.418Z,101788.97
2022-09-06T00:54:19.179Z,101791.63
2022-09-06T00:58:18.797Z,101788.25
2022-09-06T01:02:19.788Z,101785.50
2022-09-06T01:06:26.477Z,101779.13
2022-09-06T01:10:57.378Z,101790.19
2022-09-06T01:15:09.718Z,101791.59
2022-09-06T01:20:09.099Z,101795.63
2022-09-06T01:24:55.101Z,101787.53
2022-09-06T01:28:57.286Z,101790.16
2022-09-06T01:33:02.299Z,101788.06
2022-09-06T01:37:10.281Z,101789.75
2022-09-06T01:41:10.884Z,101787.75
2022-09-06T01:45:16.898Z,101777.03
2022-09-06T01:49:29.972Z,101780.81
2022-09-06T01:53:48.234Z,101779.28
2022-09-06T01:57:59.348Z,101777.84
2022-09-06T02:02:07.702Z,101753.69
2022-09-06T02:06:11.805Z,101731.38
2022-09-06T02:10:18.392Z,101771.38
2022-09-06T02:14:22.698Z,101766.84
2022-09-06T02:18:31.754Z,101723.38
2022-09-06T02:22:35.574Z,101764.75
2022-09-06T02:26:39.350Z,101760.69
2022-09-06T02:30:44.542Z,101765.97
2022-09-06T02:34:47.475Z,101748.94
2022-09-06T02:38:48.241Z,101765.13
2022-09-06T02:42:47.943Z,101772.06
2022-09-06T02:46:47.251Z,101772.81
2022-09-06T02:50:49.129Z,101775.56
2022-09-06T02:54:48.817Z,101715.28
2022-09-06T02:58:49.594Z,101777.44
2022-09-06T03:02:49.387Z,101778.97
2022-09-06T03:06:51.297Z,101769.88
2022-09-06T03:10:51.706Z,101737.91
2022-09-06T03:14:54.820Z,101765.63
2022-09-06T03:18:54.886Z,101759.06
2022-09-06T03:22:56.705Z,101753.47
2022-09-06T03:26:56.443Z,101766.97
2022-09-06T03:30:56.354Z,101763.81
2022-09-06T03:34:55.646Z,101755.16
2022-09-06T03:38:57.967Z,101755.34
2022-09-06T03:42:57.734Z,101762.34
2022-09-06T03:46:58.439Z,101764.13
2022-09-06T03:50:59.764Z,101745.66
2022-09-06T03:55:02.545Z,101753.63
2022-09-06T03:59:02.388Z,101781.69
2022-09-06T04:03:02.093Z,101773.34
2022-09-06T04:07:01.845Z,101752.53
2022-09-06T04:11:03.921Z,101791.22
2022-09-06T04:15:03.896Z,101788.72
2022-09-06T04:19:03.970Z,101774.06
2022-09-06T04:23:03.798Z,101799.69
2022-09-06T04:27:06.027Z,101803.44
2022-09-06T04:31:06.796Z,101797.34
2022-09-06T04:35:07.318Z,101785.31
2022-09-06T04:39:06.986Z,101793.97
2022-09-06T04:43:08.850Z,101788.72
2022-09-06T04:47:14.319Z,101788.88
2022-09-06T04:51:13.984Z,101791.47
2022-09-06T04:55:13.563Z,101795.94
2022-09-06T04:59:15.325Z,101798.47
2022-09-06T05:03:14.911Z,101807.94
2022-09-06T05:07:15.278Z,101809.88
2022-09-06T05:11:15.108Z,101804.03
2022-09-06T05:15:17.147Z,101812.50
2022-09-06T05:19:16.849Z,101786.78
2022-09-06T05:23:16.501Z,101814.06
2022-09-06T05:27:16.205Z,101819.56
2022-09-06T05:31:28.304Z,101812.44
2022-09-06T05:35:28.087Z,101814.97
2022-09-06T05:39:27.924Z,101822.75
2022-09-06T05:43:27.658Z,101825.91
2022-09-06T05:47:30.879Z,101826.63
2022-09-06T05:51:30.835Z,101808.66
2022-09-06T05:55:30.387Z,101814.75
2022-09-06T05:59:30.282Z,101813.97
2022-09-06T06:03:32.059Z,101811.66
2022-09-06T06:07:31.718Z,101819.88
2022-09-06T06:11:33.503Z,101812.97
2022-09-06T06:15:33.442Z,101815.31
2022-09-06T06:19:35.276Z,101815.16
2022-09-06T06:23:37.560Z,101814.41
2022-09-06T06:27:37.498Z,101832.69
2022-09-06T06:31:39.884Z,101830.00
2022-09-06T06:35:41.810Z,101826.22
2022-09-06T06:39:41.838Z,101817.06
2022-09-06T06:43:41.291Z,101809.16
2022-09-06T06:47:41.393Z,101815.53
2022-09-06T06:51:43.238Z,101812.56
2022-09-06T06:55:47.138Z,101821.47
2022-09-06T06:59:46.990Z,101834.38
2022-09-06T07:03:46.858Z,101840.25
2022-09-06T07:07:48.563Z,101832.34
2022-09-06T07:11:49.201Z,101846.38
2022-09-06T07:15:49.153Z,101826.03
2022-09-06T07:24:15.793Z,101834.50
2022-09-06T07:28:23.703Z,101832.50
2022-09-06T07:32:38.899Z,101839.47
2022-09-06T07:36:39.092Z,101839.44
2022-09-06T07:40:58.678Z,101843.66
2022-09-06T07:45:27.130Z,101827.38
2022-09-06T07:54:35.863Z,101825.28
2022-09-06T07:58:43.878Z,101782.94
2022-09-06T08:02:43.631Z,101820.84
2022-09-06T08:11:45.109Z,101829.03
2022-09-06T08:15:47.552Z,101821.28
2022-09-06T08:19:47.984Z,101816.75
2022-09-06T08:23:54.524Z,101817.03
2022-09-06T08:27:58.483Z,101797.16
2022-09-06T08:32:07.137Z,101801.44
2022-09-06T08:36:10.732Z,101801.75
2022-09-06T08:40:23.561Z,101762.69
2022-09-06T08:49:12.600Z,101785.00
2022-09-06T08:53:20.683Z,101800.25
2022-09-06T08:58:33.080Z,101796.56
2022-09-06T09:02:46.991Z,101802.81
2022-09-06T09:06:52.275Z,101801.75
2022-09-06T09:10:56.920Z,101786.19
2022-09-06T09:15:42.141Z,101785.75
2022-09-06T09:19:44.174Z,101749.53
2022-09-06T09:24:09.768Z,101719.41
2022-09-06T09:28:19.461Z,101769.97
2022-09-06T09:32:31.540Z,101764.88
2022-09-06T09:36:31.156Z,101724.88
2022-09-06T09:40:55.141Z,101758.50
2022-09-06T09:45:32.848Z,101705.94
2022-09-06T09:49:37.434Z,101743.22
2022-09-06T09:54:03.440Z,101748.53
2022-09-06T09:58:09.623Z,101716.28
2022-09-06T10:02:20.789Z,101716.38
2022-09-06T10:10:52.332Z,101743.16
2022-09-06T10:14:57.700Z,101736.97
2022-09-06T10:18:57.174Z,101739.47
2022-09-06T10:23:02.960Z,101731.28
2022-09-06T10:27:03.728Z,101719.56
2022-09-06T10:31:49.639Z,101726.00
2022-09-06T10:35:49.127Z,101712.09
2022-09-06T10:39:56.526Z,101713.81
2022-09-06T10:44:07.144Z,101697.13
2022-09-06T10:48:18.024Z,101703.47
2022-09-06T10:52:21.771Z,101699.16
2022-09-06T10:56:26.262Z,101693.69
2022-09-06T11:00:26.832Z,101695.50
2022-09-06T11:09:01.531Z,101687.91
2022-09-06T11:13:05.459Z,101691.84
2022-09-06T11:17:09.013Z,101699.25
2022-09-06T11:21:43.872Z,101686.47
2022-09-06T11:26:21.116Z,101670.59
2022-09-06T11:30:22.574Z,101681.22
2022-09-06T11:34:29.006Z,101659.25
2022-09-06T11:38:31.078Z,101673.34
2022-09-06T11:43:00.652Z,101675.38
2022-09-06T11:47:02.051Z,101676.69
2022-09-06T11:51:06.335Z,101673.94
2022-09-06T11:55:13.492Z,101663.06
2022-09-06T11:59:27.798Z,101654.19
2022-09-06T12:08:37.583Z,101640.25
2022-09-06T12:12:46.074Z,101632.72
2022-09-06T12:17:25.627Z,101637.59
2022-09-06T12:21:36.468Z,101639.78
2022-09-06T12:25:57.566Z,101603.78
2022-09-06T12:30:01.483Z,101624.06
2022-09-06T12:34:07.601Z,101624.19
2022-09-06T12:38:09.049Z,101613.69
2022-09-06T12:42:14.715Z,101612.88
2022-09-06T12:46:16.525Z,101608.84
2022-09-06T12:50:19.460Z,101603.25
2022-09-06T12:54:24.635Z,101610.16
2022-09-06T12:58:30.281Z,101608.06
2022-09-06T13:02:43.194Z,101609.91
2022-09-06T13:06:46.410Z,101603.44
2022-09-06T13:10:48.933Z,101604.47
2022-09-06T13:14:48.221Z,101584.41
2022-09-06T13:18:50.112Z,101601.59
2022-09-06T13:22:51.733Z,101595.69
2022-09-06T13:26:51.988Z,101603.66
2022-09-06T13:31:05.865Z,101597.28
2022-09-06T13:35:09.815Z,101587.31
2022-09-06T13:39:31.100Z,101591.25
2022-09-06T13:43:33.041Z,101591.69
2022-09-06T13:47:33.910Z,101581.38
2022-09-06T13:51:36.399Z,101582.84
2022-09-06T13:55:36.335Z,101573.72
2022-09-06T13:59:35.889Z,101575.78
2022-09-06T14:03:35.985Z,101574.06
2022-09-06T14:07:37.949Z,101566.00
2022-09-06T14:11:37.678Z,101548.09
2022-09-06T14:15:36.879Z,101567.50
2022-09-06T14:19:36.570Z,101561.00
2022-09-06T14:23:38.387Z,101556.31
2022-09-06T14:27:37.999Z,101552.38
2022-09-06T14:31:38.570Z,101555.78
2022-09-06T14:35:38.114Z,101548.88
2022-09-06T14:39:52.557Z,101545.94
2022-09-06T14:44:11.393Z,101539.75
2022-09-06T14:48:10.989Z,101538.75
2022-09-06T14:52:10.601Z,101542.75
2022-09-06T14:56:13.799Z,101533.28
2022-09-06T15:00:15.180Z,101522.53
2022-09-06T15:04:14.756Z,101525.88
2022-09-06T15:08:14.701Z,101530.53
2022-09-06T15:12:16.707Z,101518.59
2022-09-06T15:16:16.674Z,101523.34
2022-09-06T15:20:19.703Z,101530.41
2022-09-06T15:24:19.645Z,101525.91
2022-09-06T15:28:22.196Z,101517.81
2022-09-06T15:32:22.263Z,101505.16
2022-09-06T15:36:22.367Z,101511.63
2022-09-06T15:40:24.049Z,101517.25
2022-09-06T15:44:26.037Z,101514.25
2022-09-06T15:48:26.257Z,101523.41
2022-09-06T15:52:25.898Z,101511.66
2022-09-06T15:56:25.561Z,101522.31
2022-09-06T16:00:28.652Z,101523.34
2022-09-06T16:04:28.325Z,101521.41
2022-09-06T16:08:28.333Z,101518.44
2022-09-06T16:12:28.184Z,101516.47
2022-09-06T16:16:33.097Z,101508.41
2022-09-06T16:20:33.534Z,101506.03
2022-09-06T16:24:33.450Z,101509.91
2022-09-06T16:28:36.482Z,101509.59
2022-09-06T16:32:38.420Z,101506.84
2022-09-06T16:36:38.343Z,101512.22
2022-09-06T16:40:38.682Z,101508.41
2022-09-06T16:44:38.635Z,101514.59
2022-09-06T16:48:43.266Z,101511.78
2022-09-06T16:52:43.036Z,101512.84
2022-09-06T16:56:42.893Z,101512.63
2022-09-06T17:00:50.177Z,101511.97
2022-09-06T17:04:53.577Z,101514.72
2022-09-06T17:08:54.148Z,101518.63
2022-09-06T17:12:55.763Z,101522.16
2022-09-06T17:17:10.516Z,101517.53
2022-09-06T17:21:12.938Z,101519.72
2022-09-06T17:25:14.401Z,101514.81
2022-09-06T17:29:14.080Z,101528.31
2022-09-06T17:33:16.683Z,101530.59
2022-09-06T17:37:18.609Z,101537.25
2022-09-06T17:41:23.820Z,101514.22
2022-09-06T17:45:24.996Z,101536.66
2022-09-06T17:49:29.893Z,101542.72
2022-09-06T17:53:34.137Z,101540.66
2022-09-06T17:57:34.151Z,101543.59
2022-09-06T18:01:35.992Z,101549.13
2022-09-06T18:05:39.377Z,101556.56
2022-09-06T18:09:41.594Z,101559.47
2022-09-06T18:13:42.814Z,101562.34
2022-09-06T18:17:44.039Z,101556.47
2022-09-06T18:21:44.089Z,101564.75
2022-09-06T18:25:46.061Z,101558.56
2022-09-06T18:29:45.904Z,101562.31
2022-09-06T18:33:45.891Z,101566.03
2022-09-06T18:37:45.623Z,101529.53
2022-09-06T18:42:06.569Z,101571.59
2022-09-06T18:46:08.791Z,101521.84
2022-09-06T18:50:09.611Z,101563.88
2022-09-06T18:54:09.496Z,101565.00
2022-09-06T18:58:12.523Z,101570.59
2022-09-06T19:02:12.742Z,101576.59
2022-09-06T19:06:13.782Z,101565.66
2022-09-06T19:10:13.526Z,101570.66
2022-09-06T19:14:15.680Z,101573.75
2022-09-06T19:18:15.612Z,101566.00
2022-09-06T19:22:15.439Z,101564.06
2022-09-06T19:26:17.592Z,101559.25
2022-09-06T19:30:19.779Z,101564.94
2022-09-06T19:34:19.561Z,101576.81
2022-09-06T19:38:18.881Z,101565.00
2022-09-06T19:42:18.739Z,101578.25
2022-09-06T19:46:22.091Z,101575.19
2022-09-06T19:50:22.015Z,101540.06
2022-09-06T19:54:22.218Z,101581.13
2022-09-06T19:58:22.306Z,101568.59
2022-09-06T20:02:24.985Z,101569.50
2022-09-06T20:06:25.484Z,101525.91
2022-09-06T20:10:25.454Z,101555.66
2022-09-06T20:14:28.819Z,101553.31
2022-09-06T20:18:37.942Z,101551.91
2022-09-06T20:22:52.260Z,101570.31
2022-09-06T20:27:01.403Z,101569.69
2022-09-06T20:31:07.632Z,101572.50
2022-09-06T20:35:17.601Z,101559.56
2022-09-06T20:39:22.195Z,101574.81
2022-09-06T20:43:21.498Z,101579.53
2022-09-06T20:47:24.488Z,101579.88
2022-09-06T20:51:40.191Z,101541.28
2022-09-06T20:55:47.394Z,101579.13
2022-09-06T21:00:00.193Z,101578.22
2022-09-06T21:04:14.011Z,101578.25
2022-09-06T21:08:21.476Z,101578.41
2022-09-06T21:12:41.350Z,101568.81
2022-09-06T21:16:44.769Z,101570.59
2022-09-06T21:21:37.690Z,101575.88
2022-09-06T21:25:58.201Z,101574.13
2022-09-06T21:31:08.188Z,101571.72
2022-09-06T21:40:13.884Z,101574.41
2022-09-06T21:44:17.230Z,101574.50
2022-09-06T21:48:28.367Z,101575.44
2022-09-06T21:52:40.420Z,101547.41
2022-09-06T21:57:13.910Z,101552.00
2022-09-06T22:01:23.366Z,101573.00
2022-09-06T22:05:39.412Z,101575.72
2022-09-06T22:10:03.287Z,101577.47
2022-09-06T22:14:13.871Z,101574.78
2022-09-06T22:18:23.208Z,101559.16
2022-09-06T22:22:28.694Z,101566.22
2022-09-06T22:26:30.342Z,101568.03
2022-09-06T22:31:15.210Z,101564.50
2022-09-06T22:35:22.923Z,101564.53
2022-09-06T22:39:23.371Z,101564.53
2022-09-06T22:43:33.995Z,101563.72
2022-09-06T22:47:45.187Z,101544.38
2022-09-06T22:52:03.803Z,101561.91
2022-09-06T22:56:04.989Z,101564.69
2022-09-06T23:00:09.381Z,101547.97
2022-09-06T23:04:10.849Z,101558.59
2022-09-06T23:08:21.917Z,101556.81
2022-09-06T23:12:28.688Z,101555.06
2022-09-06T23:16:38.195Z,101548.13
2022-09-06T23:20:43.094Z,101546.34
2022-09-06T23:24:46.067Z,101530.53
2022-09-06T23:28:56.179Z,101544.69
2022-09-06T23:32:56.272Z,101541.16
2022-09-06T23:36:59.712Z,101547.28
2022-09-06T23:41:01.800Z,101541.19
2022-09-06T23:45:15.198Z,101551.81
2022-09-06T23:49:18.490Z,101543.81
2022-09-06T23:53:19.311Z,101550.66
2022-09-06T23:57:21.350Z,101516.28
